AMQ513 LGZA-EPKT
Flight info
| Callsign | AMQ513 |
|---|---|
| Flight time | 2h 1m |
| Altitude | 32000 |
| Route | OSDES Y302 SOTEG UY302 GARTA UV60 YNN UL604 DIMIS DCT ALELU DCT MODRA DCT VAL DCT PARAK DCT LITKU DCT REDSI DCT MEBAN |
| Aircraft | A321/M-SDE3FGHIRWY/LB1 |
Departure
| Time | 2026-05-04 16:59 |
|---|---|
| Airport | Zakynthos International Airport Dionysios Solomos (LGZA) |
Arrival
| Time | 2026-05-04 19:00 |
|---|---|
| Airport | Katowice Wojciech Korfanty International Airport (EPKT) |
| Time | Latitude | Longitude | Altitude | Speed | Heading |
|---|---|---|---|---|---|
| 2026-05-04 16:29 | 37.75250 | 20.88567 | 23 ft | 0 kts | 73° |
| 2026-05-04 16:50 | 37.75249 | 20.88562 | 23 ft | 2 kts | 73° |
| 2026-05-04 16:51 | 37.75240 | 20.88527 | 23 ft | 2 kts | 79° |
| 2026-05-04 16:51 | 37.75242 | 20.88508 | 23 ft | 2 kts | 114° |
| 2026-05-04 16:51 | 37.75259 | 20.88486 | 23 ft | 0 kts | 161° |
| 2026-05-04 16:52 | 37.75266 | 20.88484 | 23 ft | 0 kts | 164° |
| 2026-05-04 16:54 | 37.75257 | 20.88487 | 23 ft | 5 kts | 164° |
| 2026-05-04 16:55 | 37.75048 | 20.88474 | 23 ft | 10 kts | 216° |
| 2026-05-04 16:55 | 37.74889 | 20.88506 | 23 ft | 12 kts | 163° |
| 2026-05-04 16:56 | 37.74713 | 20.88571 | 23 ft | 16 kts | 163° |
| 2026-05-04 16:56 | 37.74350 | 20.88707 | 23 ft | 17 kts | 163° |
| 2026-05-04 16:57 | 37.74236 | 20.88750 | 23 ft | 15 kts | 165° |
| 2026-05-04 16:57 | 37.74145 | 20.88784 | 23 ft | 1 kts | 32° |
| 2026-05-04 16:58 | 37.74689 | 20.88579 | 23 ft | 115 kts | 343° |
| 2026-05-04 16:58 | 37.75684 | 20.88206 | 186 ft | 169 kts | 343° |
| 2026-05-04 16:59 | 37.77937 | 20.87373 | 1915 ft | 172 kts | 343° |
| 2026-05-04 17:00 | 37.83247 | 20.85980 | 3401 ft | 235 kts | 354° |
| 2026-05-04 17:00 | 37.88518 | 20.85472 | 5157 ft | 261 kts | 353° |
| 2026-05-04 17:01 | 37.92121 | 20.85082 | 6636 ft | 263 kts | 353° |
| 2026-05-04 17:01 | 37.95760 | 20.84670 | 7992 ft | 267 kts | 353° |
| 2026-05-04 17:02 | 37.99483 | 20.84242 | 9323 ft | 272 kts | 353° |
| 2026-05-04 17:02 | 38.03271 | 20.83802 | 10514 ft | 280 kts | 354° |
| 2026-05-04 17:03 | 38.05247 | 20.83573 | 10787 ft | 295 kts | 354° |
| 2026-05-04 17:03 | 38.07348 | 20.83330 | 11055 ft | 310 kts | 354° |
| 2026-05-04 17:03 | 38.11791 | 20.82816 | 11785 ft | 330 kts | 354° |
| 2026-05-04 17:04 | 38.16421 | 20.82282 | 12863 ft | 337 kts | 354° |
| 2026-05-04 17:04 | 38.21097 | 20.81740 | 14014 ft | 340 kts | 353° |
| 2026-05-04 17:05 | 38.25828 | 20.81188 | 15099 ft | 344 kts | 353° |
| 2026-05-04 17:05 | 38.30568 | 20.80634 | 16135 ft | 348 kts | 353° |
| 2026-05-04 17:06 | 38.35388 | 20.80070 | 17122 ft | 351 kts | 353° |
| 2026-05-04 17:06 | 38.37829 | 20.79784 | 17606 ft | 353 kts | 353° |
| 2026-05-04 17:07 | 38.42736 | 20.79209 | 18531 ft | 356 kts | 353° |
| 2026-05-04 17:07 | 38.44372 | 20.79018 | 18821 ft | 358 kts | 353° |
| 2026-05-04 17:07 | 38.47685 | 20.78628 | 19384 ft | 361 kts | 353° |
| 2026-05-04 17:07 | 38.50159 | 20.78338 | 19797 ft | 362 kts | 353° |
| 2026-05-04 17:08 | 38.52683 | 20.78041 | 20200 ft | 365 kts | 352° |
| 2026-05-04 17:08 | 38.57735 | 20.77446 | 20983 ft | 369 kts | 353° |
| 2026-05-04 17:08 | 38.60273 | 20.77147 | 21362 ft | 371 kts | 352° |
| 2026-05-04 17:09 | 38.62856 | 20.76843 | 21738 ft | 373 kts | 352° |
| 2026-05-04 17:09 | 38.65414 | 20.76541 | 22100 ft | 375 kts | 352° |
| 2026-05-04 17:09 | 38.68011 | 20.76235 | 22455 ft | 377 kts | 352° |
| 2026-05-04 17:10 | 38.73238 | 20.75618 | 23157 ft | 380 kts | 352° |
| 2026-05-04 17:10 | 38.81176 | 20.74679 | 24154 ft | 386 kts | 352° |
| 2026-05-04 17:11 | 38.83863 | 20.74360 | 24462 ft | 388 kts | 352° |
| 2026-05-04 17:11 | 38.86536 | 20.74045 | 24770 ft | 389 kts | 352° |
| 2026-05-04 17:11 | 38.91928 | 20.73405 | 25395 ft | 392 kts | 352° |
| 2026-05-04 17:12 | 38.94618 | 20.73086 | 25694 ft | 393 kts | 352° |
| 2026-05-04 17:12 | 39.00096 | 20.72434 | 26271 ft | 396 kts | 352° |
| 2026-05-04 17:13 | 39.08340 | 20.71451 | 27070 ft | 400 kts | 352° |
| 2026-05-04 17:14 | 39.16634 | 20.70461 | 27974 ft | 401 kts | 352° |
| 2026-05-04 17:14 | 39.19398 | 20.70132 | 28361 ft | 399 kts | 352° |
| 2026-05-04 17:14 | 39.24898 | 20.69475 | 29094 ft | 396 kts | 352° |
| 2026-05-04 17:15 | 39.27629 | 20.69148 | 29451 ft | 394 kts | 352° |
| 2026-05-04 17:15 | 39.33042 | 20.68499 | 30130 ft | 391 kts | 351° |
| 2026-05-04 17:16 | 39.38447 | 20.67846 | 30668 ft | 392 kts | 352° |
| 2026-05-04 17:16 | 39.46615 | 20.66859 | 31328 ft | 395 kts | 352° |
| 2026-05-04 17:17 | 39.49316 | 20.66534 | 31538 ft | 396 kts | 352° |
| 2026-05-04 17:17 | 39.57543 | 20.65539 | 31993 ft | 399 kts | 352° |
| 2026-05-04 17:18 | 39.60309 | 20.65206 | 31998 ft | 400 kts | 352° |
| 2026-05-04 17:19 | 39.71343 | 20.63868 | 32002 ft | 400 kts | 352° |
| 2026-05-04 17:20 | 39.82428 | 20.62521 | 32003 ft | 400 kts | 352° |
| 2026-05-04 17:20 | 39.90683 | 20.61515 | 32003 ft | 400 kts | 352° |
| 2026-05-04 17:21 | 40.01739 | 20.60162 | 32001 ft | 400 kts | 352° |
| 2026-05-04 17:22 | 40.07258 | 20.59252 | 32002 ft | 400 kts | 348° |
| 2026-05-04 17:23 | 40.18024 | 20.55941 | 32003 ft | 399 kts | 344° |
| 2026-05-04 17:24 | 40.26107 | 20.53281 | 32003 ft | 399 kts | 344° |
| 2026-05-04 17:25 | 40.36863 | 20.49733 | 32002 ft | 400 kts | 344° |
| 2026-05-04 17:26 | 40.47615 | 20.46174 | 32002 ft | 400 kts | 344° |
| 2026-05-04 17:27 | 40.61140 | 20.41683 | 32002 ft | 402 kts | 345° |
| 2026-05-04 17:28 | 40.71933 | 20.38086 | 32002 ft | 402 kts | 345° |
| 2026-05-04 17:29 | 40.88219 | 20.32633 | 32059 ft | 404 kts | 344° |
| 2026-05-04 17:31 | 41.01847 | 20.28052 | 32121 ft | 405 kts | 344° |
| 2026-05-04 17:32 | 41.15457 | 20.23455 | 32130 ft | 406 kts | 345° |
| 2026-05-04 17:33 | 41.26412 | 20.19741 | 32129 ft | 407 kts | 345° |
| 2026-05-04 17:34 | 41.37367 | 20.16014 | 32129 ft | 407 kts | 345° |
| 2026-05-04 17:35 | 41.51031 | 20.11348 | 32129 ft | 408 kts | 345° |
| 2026-05-04 17:36 | 41.56547 | 20.09458 | 32129 ft | 408 kts | 345° |
| 2026-05-04 17:36 | 41.62032 | 20.07577 | 32129 ft | 408 kts | 345° |
| 2026-05-04 17:37 | 41.67497 | 20.05698 | 32129 ft | 408 kts | 345° |
| 2026-05-04 17:37 | 41.72972 | 20.03812 | 32129 ft | 408 kts | 345° |
| 2026-05-04 17:38 | 41.78440 | 20.01926 | 32129 ft | 408 kts | 345° |
| 2026-05-04 17:38 | 41.83931 | 20.00029 | 32129 ft | 408 kts | 345° |
| 2026-05-04 17:39 | 41.92173 | 19.97174 | 32129 ft | 408 kts | 345° |
| 2026-05-04 17:39 | 41.97639 | 19.95277 | 32129 ft | 408 kts | 345° |
| 2026-05-04 17:40 | 42.03144 | 19.93362 | 32125 ft | 408 kts | 345° |
| 2026-05-04 17:40 | 42.08588 | 19.91466 | 32118 ft | 408 kts | 345° |
| 2026-05-04 17:41 | 42.14097 | 19.89543 | 32111 ft | 408 kts | 345° |
| 2026-05-04 17:41 | 42.19578 | 19.87627 | 32106 ft | 408 kts | 345° |
| 2026-05-04 17:42 | 42.25075 | 19.85703 | 32105 ft | 409 kts | 345° |
| 2026-05-04 17:42 | 42.30597 | 19.83765 | 32105 ft | 409 kts | 345° |
| 2026-05-04 17:43 | 42.36089 | 19.81834 | 32104 ft | 410 kts | 345° |
| 2026-05-04 17:43 | 42.41580 | 19.79901 | 32105 ft | 410 kts | 345° |
| 2026-05-04 17:44 | 42.47104 | 19.77952 | 32105 ft | 410 kts | 345° |
| 2026-05-04 17:44 | 42.52616 | 19.76005 | 32105 ft | 410 kts | 345° |
| 2026-05-04 17:45 | 42.58106 | 19.74062 | 32104 ft | 411 kts | 345° |
| 2026-05-04 17:45 | 42.63636 | 19.72101 | 32104 ft | 412 kts | 345° |
| 2026-05-04 17:46 | 42.69178 | 19.70132 | 32105 ft | 412 kts | 345° |
| 2026-05-04 17:46 | 42.74682 | 19.68174 | 32104 ft | 413 kts | 345° |
| 2026-05-04 17:47 | 42.80253 | 19.66190 | 32105 ft | 413 kts | 345° |
| 2026-05-04 17:47 | 42.85776 | 19.64219 | 32105 ft | 413 kts | 345° |
| 2026-05-04 17:48 | 42.91324 | 19.62235 | 32104 ft | 414 kts | 345° |
| 2026-05-04 17:48 | 42.96960 | 19.60726 | 32104 ft | 415 kts | 352° |
| 2026-05-04 17:49 | 43.02718 | 19.60164 | 32104 ft | 417 kts | 358° |
| 2026-05-04 17:49 | 43.08474 | 19.60575 | 32105 ft | 418 kts | 5° |
| 2026-05-04 17:50 | 43.14255 | 19.61728 | 32105 ft | 419 kts | 7° |
| 2026-05-04 17:50 | 43.19988 | 19.62964 | 32105 ft | 419 kts | 7° |
| 2026-05-04 17:51 | 43.25729 | 19.64203 | 32104 ft | 419 kts | 7° |
| 2026-05-04 17:51 | 43.31496 | 19.65446 | 32098 ft | 419 kts | 7° |
| 2026-05-04 17:52 | 43.37217 | 19.66681 | 32091 ft | 420 kts | 7° |
| 2026-05-04 17:52 | 43.42983 | 19.67927 | 32084 ft | 420 kts | 7° |
| 2026-05-04 17:53 | 43.48724 | 19.69169 | 32079 ft | 420 kts | 7° |
| 2026-05-04 17:53 | 43.54506 | 19.70424 | 32077 ft | 420 kts | 7° |
| 2026-05-04 17:54 | 43.60259 | 19.71675 | 32077 ft | 420 kts | 7° |
| 2026-05-04 17:54 | 43.66017 | 19.72929 | 32077 ft | 420 kts | 7° |
| 2026-05-04 17:55 | 43.71766 | 19.74184 | 32077 ft | 420 kts | 7° |
| 2026-05-04 17:55 | 43.77560 | 19.75450 | 32077 ft | 420 kts | 7° |
| 2026-05-04 17:56 | 43.83300 | 19.76708 | 32077 ft | 420 kts | 7° |
| 2026-05-04 17:56 | 43.89109 | 19.77984 | 32077 ft | 420 kts | 7° |
| 2026-05-04 17:57 | 43.94871 | 19.79252 | 32077 ft | 420 kts | 7° |
| 2026-05-04 17:57 | 44.00631 | 19.80520 | 32077 ft | 420 kts | 7° |
| 2026-05-04 17:58 | 44.06414 | 19.81799 | 32077 ft | 420 kts | 7° |
| 2026-05-04 17:58 | 44.12160 | 19.83072 | 32078 ft | 420 kts | 7° |
| 2026-05-04 17:59 | 44.17954 | 19.84358 | 32077 ft | 420 kts | 7° |
| 2026-05-04 18:00 | 44.26577 | 19.86279 | 32077 ft | 420 kts | 7° |
| 2026-05-04 18:00 | 44.32376 | 19.87493 | 32077 ft | 420 kts | 5° |
| 2026-05-04 18:01 | 44.38208 | 19.88220 | 32077 ft | 419 kts | 3° |
| 2026-05-04 18:01 | 44.44075 | 19.88884 | 32076 ft | 420 kts | 3° |
| 2026-05-04 18:02 | 44.52851 | 19.89892 | 32077 ft | 420 kts | 4° |
| 2026-05-04 18:02 | 44.58696 | 19.90568 | 32076 ft | 421 kts | 4° |
| 2026-05-04 18:03 | 44.64556 | 19.91249 | 32077 ft | 422 kts | 4° |
| 2026-05-04 18:03 | 44.70417 | 19.91931 | 32076 ft | 422 kts | 4° |
| 2026-05-04 18:04 | 44.76310 | 19.92619 | 32077 ft | 422 kts | 4° |
| 2026-05-04 18:05 | 44.85119 | 19.93650 | 32077 ft | 423 kts | 4° |
| 2026-05-04 18:05 | 44.91014 | 19.94342 | 32076 ft | 424 kts | 4° |
| 2026-05-04 18:06 | 44.99795 | 19.95375 | 32077 ft | 424 kts | 4° |
| 2026-05-04 18:06 | 45.05701 | 19.96072 | 32076 ft | 425 kts | 4° |
| 2026-05-04 18:07 | 45.11556 | 19.96764 | 32078 ft | 425 kts | 4° |
| 2026-05-04 18:07 | 45.17458 | 19.97463 | 32076 ft | 426 kts | 4° |
| 2026-05-04 18:08 | 45.23364 | 19.98164 | 32077 ft | 426 kts | 4° |
| 2026-05-04 18:08 | 45.29268 | 19.98867 | 32077 ft | 426 kts | 4° |
| 2026-05-04 18:09 | 45.41037 | 20.00269 | 32077 ft | 426 kts | 4° |
| 2026-05-04 18:10 | 45.46957 | 20.00978 | 32077 ft | 426 kts | 4° |
| 2026-05-04 18:10 | 45.52825 | 20.01684 | 32077 ft | 426 kts | 4° |
| 2026-05-04 18:11 | 45.58720 | 20.02393 | 32077 ft | 426 kts | 4° |
| 2026-05-04 18:11 | 45.64611 | 20.03104 | 32077 ft | 426 kts | 4° |
| 2026-05-04 18:12 | 45.70500 | 20.03816 | 32077 ft | 426 kts | 4° |
| 2026-05-04 18:12 | 45.76463 | 20.04537 | 32077 ft | 432 kts | 4° |
| 2026-05-04 18:13 | 45.82453 | 20.05264 | 32076 ft | 432 kts | 4° |
| 2026-05-04 18:14 | 45.91410 | 20.06355 | 32071 ft | 432 kts | 4° |
| 2026-05-04 18:14 | 45.97393 | 20.07088 | 32068 ft | 432 kts | 4° |
| 2026-05-04 18:15 | 46.09372 | 20.08559 | 32057 ft | 432 kts | 4° |
| 2026-05-04 18:16 | 46.15388 | 20.08841 | 32053 ft | 432 kts | 358° |
| 2026-05-04 18:16 | 46.21341 | 20.08212 | 32051 ft | 432 kts | 352° |
| 2026-05-04 18:17 | 46.30270 | 20.06213 | 32050 ft | 432 kts | 351° |
| 2026-05-04 18:18 | 46.39163 | 20.04136 | 32050 ft | 433 kts | 351° |
| 2026-05-04 18:18 | 46.45060 | 20.02760 | 32050 ft | 433 kts | 351° |
| 2026-05-04 18:19 | 46.53938 | 20.00686 | 32050 ft | 433 kts | 351° |
| 2026-05-04 18:19 | 46.59891 | 19.99294 | 32050 ft | 433 kts | 351° |
| 2026-05-04 18:20 | 46.65806 | 19.97906 | 32050 ft | 435 kts | 351° |
| 2026-05-04 18:20 | 46.71776 | 19.96502 | 32050 ft | 435 kts | 351° |
| 2026-05-04 18:21 | 46.77717 | 19.95101 | 32050 ft | 436 kts | 351° |
| 2026-05-04 18:21 | 46.83687 | 19.93691 | 32050 ft | 436 kts | 351° |
| 2026-05-04 18:22 | 46.89675 | 19.92273 | 32050 ft | 437 kts | 351° |
| 2026-05-04 18:22 | 46.95660 | 19.90853 | 32050 ft | 437 kts | 350° |
| 2026-05-04 18:23 | 47.01650 | 19.89428 | 32049 ft | 437 kts | 351° |
| 2026-05-04 18:23 | 47.07629 | 19.88003 | 32050 ft | 438 kts | 350° |
| 2026-05-04 18:24 | 47.13647 | 19.86565 | 32051 ft | 438 kts | 350° |
| 2026-05-04 18:24 | 47.19646 | 19.85132 | 32049 ft | 440 kts | 350° |
| 2026-05-04 18:25 | 47.25703 | 19.83678 | 32050 ft | 441 kts | 350° |
| 2026-05-04 18:25 | 47.31769 | 19.82217 | 32050 ft | 441 kts | 350° |
| 2026-05-04 18:26 | 47.37809 | 19.80760 | 32050 ft | 441 kts | 350° |
| 2026-05-04 18:26 | 47.43847 | 19.79301 | 32050 ft | 442 kts | 350° |
| 2026-05-04 18:27 | 47.49918 | 19.77830 | 32050 ft | 442 kts | 350° |
| 2026-05-04 18:27 | 47.55957 | 19.76365 | 32050 ft | 442 kts | 350° |
| 2026-05-04 18:28 | 47.62006 | 19.74893 | 32050 ft | 442 kts | 350° |
| 2026-05-04 18:28 | 47.68062 | 19.73415 | 32050 ft | 442 kts | 350° |
| 2026-05-04 18:29 | 47.74112 | 19.71936 | 32050 ft | 443 kts | 350° |
| 2026-05-04 18:29 | 47.80185 | 19.70448 | 32050 ft | 443 kts | 350° |
| 2026-05-04 18:30 | 47.89280 | 19.68214 | 32050 ft | 443 kts | 350° |
| 2026-05-04 18:31 | 47.95352 | 19.66719 | 32050 ft | 443 kts | 350° |
| 2026-05-04 18:31 | 48.01397 | 19.65228 | 32050 ft | 442 kts | 350° |
| 2026-05-04 18:32 | 48.07497 | 19.63721 | 32050 ft | 443 kts | 350° |
| 2026-05-04 18:32 | 48.13584 | 19.62213 | 32051 ft | 443 kts | 350° |
| 2026-05-04 18:33 | 48.19661 | 19.60756 | 32050 ft | 443 kts | 352° |
| 2026-05-04 18:33 | 48.25784 | 19.60042 | 32050 ft | 444 kts | 358° |
| 2026-05-04 18:34 | 48.31929 | 19.60154 | 32051 ft | 444 kts | 0° |
| 2026-05-04 18:34 | 48.38115 | 19.60420 | 32050 ft | 444 kts | 0° |
| 2026-05-04 18:35 | 48.44258 | 19.60680 | 32050 ft | 445 kts | 0° |
| 2026-05-04 18:35 | 48.50413 | 19.60933 | 32050 ft | 445 kts | 0° |
| 2026-05-04 18:36 | 48.56579 | 19.61184 | 32047 ft | 445 kts | 0° |
| 2026-05-04 18:36 | 48.62784 | 19.61437 | 32040 ft | 445 kts | 0° |
| 2026-05-04 18:37 | 48.68964 | 19.61689 | 32032 ft | 446 kts | 0° |
| 2026-05-04 18:37 | 48.75125 | 19.61941 | 31905 ft | 441 kts | 0° |
| 2026-05-04 18:37 | 48.78170 | 19.62066 | 31670 ft | 438 kts | 0° |
| 2026-05-04 18:38 | 48.81220 | 19.62192 | 31313 ft | 436 kts | 0° |
| 2026-05-04 18:38 | 48.84189 | 19.62314 | 30942 ft | 432 kts | 0° |
| 2026-05-04 18:38 | 48.87183 | 19.62438 | 30566 ft | 431 kts | 0° |
| 2026-05-04 18:38 | 48.90187 | 19.62562 | 30189 ft | 432 kts | 0° |
| 2026-05-04 18:39 | 48.93177 | 19.62685 | 29804 ft | 433 kts | 0° |
| 2026-05-04 18:39 | 48.96165 | 19.62807 | 29371 ft | 434 kts | 0° |
| 2026-05-04 18:39 | 48.99205 | 19.62932 | 28916 ft | 435 kts | 0° |
| 2026-05-04 18:39 | 49.02220 | 19.63057 | 28424 ft | 437 kts | 0° |
| 2026-05-04 18:40 | 49.05238 | 19.63183 | 27926 ft | 439 kts | 0° |
| 2026-05-04 18:40 | 49.08277 | 19.63309 | 27424 ft | 441 kts | 0° |
| 2026-05-04 18:40 | 49.11379 | 19.63439 | 26891 ft | 441 kts | 0° |
| 2026-05-04 18:40 | 49.14386 | 19.63567 | 26371 ft | 429 kts | 0° |
| 2026-05-04 18:41 | 49.17327 | 19.63695 | 25842 ft | 417 kts | 0° |
| 2026-05-04 18:41 | 49.20187 | 19.63817 | 25314 ft | 406 kts | 0° |
| 2026-05-04 18:41 | 49.22953 | 19.63933 | 24789 ft | 396 kts | 0° |
| 2026-05-04 18:41 | 49.25675 | 19.64034 | 24261 ft | 387 kts | 360° |
| 2026-05-04 18:42 | 49.28315 | 19.64118 | 23737 ft | 379 kts | 360° |
| 2026-05-04 18:42 | 49.30924 | 19.64199 | 23206 ft | 375 kts | 360° |
| 2026-05-04 18:42 | 49.33502 | 19.64280 | 22530 ft | 376 kts | 359° |
| 2026-05-04 18:42 | 49.36134 | 19.64365 | 21570 ft | 380 kts | 360° |
| 2026-05-04 18:43 | 49.38739 | 19.64449 | 21136 ft | 369 kts | 360° |
| 2026-05-04 18:43 | 49.41263 | 19.64534 | 20735 ft | 359 kts | 359° |
| 2026-05-04 18:43 | 49.43727 | 19.64535 | 20311 ft | 354 kts | 356° |
| 2026-05-04 18:43 | 49.46163 | 19.64322 | 19885 ft | 351 kts | 353° |
| 2026-05-04 18:44 | 49.48558 | 19.63895 | 19460 ft | 347 kts | 349° |
| 2026-05-04 18:44 | 49.50154 | 19.63513 | 19174 ft | 345 kts | 348° |
| 2026-05-04 18:44 | 49.53272 | 19.62711 | 18608 ft | 340 kts | 348° |
| 2026-05-04 18:44 | 49.55592 | 19.62110 | 18175 ft | 338 kts | 348° |
| 2026-05-04 18:45 | 49.57896 | 19.61513 | 17749 ft | 336 kts | 348° |
| 2026-05-04 18:45 | 49.60175 | 19.60926 | 17354 ft | 333 kts | 348° |
| 2026-05-04 18:45 | 49.62477 | 19.60336 | 16974 ft | 330 kts | 348° |
| 2026-05-04 18:45 | 49.64702 | 19.59766 | 16602 ft | 327 kts | 348° |
| 2026-05-04 18:46 | 49.66929 | 19.59195 | 16227 ft | 324 kts | 348° |
| 2026-05-04 18:46 | 49.69142 | 19.58628 | 15850 ft | 322 kts | 348° |
| 2026-05-04 18:46 | 49.71344 | 19.58064 | 15473 ft | 320 kts | 348° |
| 2026-05-04 18:46 | 49.73529 | 19.57503 | 15099 ft | 319 kts | 348° |
| 2026-05-04 18:47 | 49.75711 | 19.56943 | 14723 ft | 318 kts | 348° |
| 2026-05-04 18:47 | 49.77861 | 19.56389 | 14405 ft | 316 kts | 348° |
| 2026-05-04 18:47 | 49.80036 | 19.55830 | 14131 ft | 316 kts | 347° |
| 2026-05-04 18:47 | 49.82184 | 19.55277 | 13871 ft | 315 kts | 347° |
| 2026-05-04 18:48 | 49.84319 | 19.54727 | 13594 ft | 309 kts | 347° |
| 2026-05-04 18:48 | 49.86420 | 19.54189 | 13317 ft | 304 kts | 347° |
| 2026-05-04 18:48 | 49.88500 | 19.53653 | 13038 ft | 298 kts | 347° |
| 2026-05-04 18:48 | 49.90510 | 19.53134 | 12763 ft | 293 kts | 347° |
| 2026-05-04 18:49 | 49.92509 | 19.52618 | 12468 ft | 289 kts | 347° |
| 2026-05-04 18:49 | 49.94487 | 19.52107 | 12140 ft | 286 kts | 347° |
| 2026-05-04 18:49 | 49.96432 | 19.51603 | 11815 ft | 283 kts | 347° |
| 2026-05-04 18:49 | 49.98348 | 19.51103 | 11492 ft | 280 kts | 347° |
| 2026-05-04 18:50 | 50.00251 | 19.50606 | 11175 ft | 277 kts | 347° |
| 2026-05-04 18:50 | 50.02126 | 19.50120 | 10922 ft | 272 kts | 347° |
| 2026-05-04 18:50 | 50.03992 | 19.49636 | 10650 ft | 269 kts | 348° |
| 2026-05-04 18:50 | 50.05820 | 19.49159 | 10337 ft | 268 kts | 348° |
| 2026-05-04 18:51 | 50.07670 | 19.48675 | 9983 ft | 267 kts | 348° |
| 2026-05-04 18:51 | 50.09477 | 19.48203 | 9637 ft | 266 kts | 348° |
| 2026-05-04 18:51 | 50.11309 | 19.47723 | 9283 ft | 265 kts | 349° |
| 2026-05-04 18:51 | 50.13132 | 19.47247 | 8931 ft | 264 kts | 349° |
| 2026-05-04 18:52 | 50.14930 | 19.46782 | 8584 ft | 263 kts | 349° |
| 2026-05-04 18:52 | 50.16721 | 19.46317 | 8234 ft | 262 kts | 349° |
| 2026-05-04 18:52 | 50.18509 | 19.45848 | 7884 ft | 261 kts | 349° |
| 2026-05-04 18:52 | 50.20293 | 19.45382 | 7534 ft | 260 kts | 349° |
| 2026-05-04 18:53 | 50.22075 | 19.44917 | 7184 ft | 260 kts | 349° |
| 2026-05-04 18:53 | 50.23864 | 19.44451 | 6831 ft | 259 kts | 349° |
| 2026-05-04 18:53 | 50.25627 | 19.43988 | 6483 ft | 258 kts | 349° |
| 2026-05-04 18:53 | 50.27398 | 19.43523 | 6130 ft | 257 kts | 349° |
| 2026-05-04 18:54 | 50.29145 | 19.43064 | 5783 ft | 256 kts | 349° |
| 2026-05-04 18:54 | 50.30905 | 19.42600 | 5456 ft | 255 kts | 349° |
| 2026-05-04 18:54 | 50.32630 | 19.42148 | 5198 ft | 250 kts | 349° |
| 2026-05-04 18:54 | 50.34337 | 19.41701 | 5015 ft | 244 kts | 350° |
| 2026-05-04 18:55 | 50.35997 | 19.41263 | 4996 ft | 246 kts | 349° |
| 2026-05-04 18:55 | 50.39379 | 19.40377 | 4987 ft | 246 kts | 349° |
| 2026-05-04 18:55 | 50.41057 | 19.39929 | 4988 ft | 246 kts | 350° |
| 2026-05-04 18:56 | 50.42759 | 19.39480 | 4808 ft | 246 kts | 350° |
| 2026-05-04 18:56 | 50.44447 | 19.39034 | 4459 ft | 247 kts | 349° |
| 2026-05-04 18:56 | 50.46055 | 19.38227 | 4083 ft | 245 kts | 324° |
| 2026-05-04 18:56 | 50.47130 | 19.36309 | 3993 ft | 226 kts | 292° |
| 2026-05-04 18:57 | 50.47525 | 19.33981 | 3926 ft | 220 kts | 275° |
| 2026-05-04 18:57 | 50.47617 | 19.31559 | 3666 ft | 219 kts | 269° |
| 2026-05-04 18:57 | 50.47623 | 19.29183 | 3384 ft | 217 kts | 268° |
| 2026-05-04 18:57 | 50.47612 | 19.26849 | 3101 ft | 215 kts | 268° |
| 2026-05-04 18:58 | 50.47604 | 19.24521 | 2906 ft | 206 kts | 268° |
| 2026-05-04 18:58 | 50.47606 | 19.22327 | 2586 ft | 197 kts | 268° |
| 2026-05-04 18:58 | 50.47604 | 19.20235 | 2290 ft | 185 kts | 268° |
| 2026-05-04 18:58 | 50.47599 | 19.18278 | 2062 ft | 171 kts | 268° |
| 2026-05-04 18:59 | 50.47601 | 19.16510 | 1842 ft | 157 kts | 268° |
| 2026-05-04 18:59 | 50.47601 | 19.14834 | 1621 ft | 149 kts | 268° |
| 2026-05-04 18:59 | 50.47601 | 19.13221 | 1438 ft | 150 kts | 269° |
| 2026-05-04 18:59 | 50.47599 | 19.11571 | 1228 ft | 149 kts | 269° |
| 2026-05-04 19:00 | 50.47587 | 19.09956 | 1037 ft | 148 kts | 268° |
| 2026-05-04 19:00 | 50.47591 | 19.08451 | 997 ft | 120 kts | 270° |
| 2026-05-04 19:00 | 50.47592 | 19.07532 | 992 ft | 58 kts | 268° |
| 2026-05-04 19:00 | 50.47572 | 19.07127 | 987 ft | 23 kts | 251° |
| 2026-05-04 19:01 | 50.47523 | 19.06962 | 985 ft | 8 kts | 239° |
| 2026-05-04 19:01 | 50.47490 | 19.06875 | 984 ft | 10 kts | 239° |
| 2026-05-04 19:01 | 50.47452 | 19.06772 | 983 ft | 11 kts | 240° |
| 2026-05-04 19:01 | 50.47406 | 19.06658 | 981 ft | 12 kts | 217° |
| 2026-05-04 19:02 | 50.47318 | 19.06634 | 981 ft | 13 kts | 181° |
| 2026-05-04 19:02 | 50.47243 | 19.06688 | 982 ft | 12 kts | 110° |
| 2026-05-04 19:02 | 50.47237 | 19.06820 | 983 ft | 11 kts | 90° |
| 2026-05-04 19:02 | 50.47236 | 19.06960 | 985 ft | 13 kts | 90° |
| 2026-05-04 19:03 | 50.47236 | 19.07103 | 987 ft | 12 kts | 90° |
| 2026-05-04 19:03 | 50.47236 | 19.07241 | 989 ft | 13 kts | 90° |
| 2026-05-04 19:03 | 50.47236 | 19.07379 | 990 ft | 12 kts | 90° |
| 2026-05-04 19:03 | 50.47236 | 19.07509 | 991 ft | 11 kts | 90° |
| 2026-05-04 19:04 | 50.47236 | 19.07629 | 992 ft | 10 kts | 90° |
| 2026-05-04 19:04 | 50.47235 | 19.07732 | 993 ft | 8 kts | 92° |
| 2026-05-04 19:04 | 50.47192 | 19.07773 | 993 ft | 7 kts | 178° |
| 2026-05-04 19:04 | 50.47155 | 19.07774 | 993 ft | 1 kts | 179° |
| 2026-05-04 19:05 | 50.47152 | 19.07774 | 993 ft | 0 kts | 179° |